createdAt,value
2023-04-07T00:00:30.080Z,1006.99
2023-04-07T00:01:30.127Z,1006.98
2023-04-07T00:02:30.056Z,1006.93
2023-04-07T00:03:30.201Z,1006.96
2023-04-07T00:04:30.095Z,1006.94
2023-04-07T00:05:29.985Z,1006.96
2023-04-07T00:06:30.008Z,1006.93
2023-04-07T00:07:29.959Z,1006.92
2023-04-07T00:08:29.954Z,1006.94
2023-04-07T00:09:29.953Z,1006.92
2023-04-07T00:10:29.934Z,1006.89
2023-04-07T00:11:29.928Z,1006.89
2023-04-07T00:12:29.918Z,1006.92
2023-04-07T00:13:30.809Z,1006.86
2023-04-07T00:14:29.891Z,1006.88
2023-04-07T00:15:29.882Z,1006.86
2023-04-07T00:16:29.879Z,1006.88
2023-04-07T00:17:29.873Z,1006.90
2023-04-07T00:18:29.855Z,1006.83
2023-04-07T00:19:29.834Z,1006.88
2023-04-07T00:20:29.820Z,1006.90
2023-04-07T00:21:29.850Z,1006.84
2023-04-07T00:22:29.806Z,1006.88
2023-04-07T00:23:29.777Z,1006.85
2023-04-07T00:24:34.328Z,1006.88
2023-04-07T00:25:29.761Z,1006.83
2023-04-07T00:26:29.767Z,1006.84
2023-04-07T00:27:29.733Z,1006.85
2023-04-07T00:28:29.730Z,1006.82
2023-04-07T00:29:29.709Z,1006.80
2023-04-07T00:30:29.708Z,1006.81
2023-04-07T00:31:29.773Z,1006.85
2023-04-07T00:32:29.720Z,1006.80
2023-04-07T00:33:29.667Z,1006.87
2023-04-07T00:34:29.668Z,1006.78
2023-04-07T00:35:29.669Z,1006.83
2023-04-07T00:36:29.656Z,1006.78
2023-04-07T00:37:29.618Z,1006.80
2023-04-07T00:38:29.614Z,1006.80
2023-04-07T00:39:29.606Z,1006.75
2023-04-07T00:40:29.608Z,1006.78
2023-04-07T00:41:29.603Z,1006.77
2023-04-07T00:42:29.570Z,1006.77
2023-04-07T00:43:29.578Z,1006.76
2023-04-07T00:44:29.534Z,1006.75
2023-04-07T00:45:29.536Z,1006.75
2023-04-07T00:46:29.559Z,1006.76
2023-04-07T00:47:29.538Z,1006.75
2023-04-07T00:48:29.485Z,1006.76
2023-04-07T00:49:29.496Z,1006.77
2023-04-07T00:50:29.481Z,1006.81
2023-04-07T00:51:29.496Z,1006.72
2023-04-07T00:52:29.445Z,1006.76
2023-04-07T00:53:29.448Z,1006.72
2023-04-07T00:54:29.424Z,1006.72
2023-04-07T00:55:29.414Z,1006.75
2023-04-07T00:56:29.430Z,1006.71
2023-04-07T00:57:29.407Z,1006.67
2023-04-07T00:58:29.390Z,1006.70
2023-04-07T00:59:29.371Z,1006.68
2023-04-07T01:00:29.365Z,1006.63
2023-04-07T01:01:29.594Z,1006.66
2023-04-07T01:02:29.658Z,1006.63
2023-04-07T01:03:29.664Z,1006.64
2023-04-07T01:04:29.451Z,1006.64
2023-04-07T01:05:29.305Z,1006.61
2023-04-07T01:06:29.296Z,1006.61
2023-04-07T01:07:29.280Z,1006.59
2023-04-07T01:08:29.260Z,1006.61
2023-04-07T01:09:29.259Z,1006.58
2023-04-07T01:10:29.254Z,1006.57
2023-04-07T01:11:29.251Z,1006.58
2023-04-07T01:12:29.220Z,1006.57
2023-04-07T01:13:29.219Z,1006.60
2023-04-07T01:14:29.193Z,1006.59
2023-04-07T01:15:29.182Z,1006.57
2023-04-07T01:16:29.230Z,1006.59
2023-04-07T01:17:29.212Z,1006.58
2023-04-07T01:18:29.151Z,1006.56
2023-04-07T01:19:29.136Z,1006.54
2023-04-07T01:20:29.131Z,1006.54
2023-04-07T01:21:29.152Z,1006.54
2023-04-07T01:22:29.142Z,1006.54
2023-04-07T01:23:29.087Z,1006.52
2023-04-07T01:24:29.076Z,1006.55
2023-04-07T01:25:29.066Z,1006.47
2023-04-07T01:26:29.069Z,1006.51
2023-04-07T01:27:29.055Z,1006.50
2023-04-07T01:28:29.033Z,1006.51
2023-04-07T01:29:29.021Z,1006.52
2023-04-07T01:30:29.020Z,1006.47
2023-04-07T01:31:29.046Z,1006.45
2023-04-07T01:32:29.022Z,1006.49
2023-04-07T01:33:28.990Z,1006.46
2023-04-07T01:34:28.961Z,1006.47
2023-04-07T01:35:28.951Z,1006.48
2023-04-07T01:36:28.974Z,1006.46
2023-04-07T01:37:28.935Z,1006.44
2023-04-07T01:38:28.918Z,1006.46
2023-04-07T01:39:28.911Z,1006.49
2023-04-07T01:40:28.892Z,1006.48
2023-04-07T01:41:28.901Z,1006.45
2023-04-07T01:42:28.887Z,1006.46
2023-04-07T01:43:28.863Z,1006.48
2023-04-07T01:44:28.848Z,1006.47
2023-04-07T01:45:28.854Z,1006.49
2023-04-07T01:46:28.825Z,1006.50
2023-04-07T01:47:28.920Z,1006.50
2023-04-07T01:48:28.804Z,1006.52
2023-04-07T01:49:28.805Z,1006.50
2023-04-07T01:50:28.788Z,1006.50
2023-04-07T01:51:28.782Z,1006.49
2023-04-07T01:52:28.781Z,1006.46
2023-04-07T01:53:28.757Z,1006.52
2023-04-07T01:54:28.738Z,1006.49
2023-04-07T01:55:28.725Z,1006.51
2023-04-07T01:56:28.711Z,1006.53
2023-04-07T01:57:28.725Z,1006.46
2023-04-07T01:58:28.698Z,1006.50
2023-04-07T01:59:28.685Z,1006.49
2023-04-07T02:00:28.666Z,1006.47
2023-04-07T02:01:28.760Z,1006.48
2023-04-07T02:02:28.760Z,1006.48
2023-04-07T02:03:28.727Z,1006.44
2023-04-07T02:04:28.626Z,1006.43
2023-04-07T02:05:28.625Z,1006.46
2023-04-07T02:06:28.596Z,1006.47
2023-04-07T02:07:28.638Z,1006.49
2023-04-07T02:08:29.555Z,1006.52
2023-04-07T02:09:28.572Z,1006.49
2023-04-07T02:10:28.557Z,1006.46
2023-04-07T02:11:28.553Z,1006.48
2023-04-07T02:12:28.557Z,1006.49
2023-04-07T02:13:28.519Z,1006.50
2023-04-07T02:14:28.508Z,1006.52
2023-04-07T02:15:28.517Z,1006.56
2023-04-07T02:16:28.552Z,1006.50
2023-04-07T02:17:28.538Z,1006.48
2023-04-07T02:18:28.471Z,1006.50
2023-04-07T02:19:28.460Z,1006.47
2023-04-07T02:20:28.448Z,1006.43
2023-04-07T02:21:28.432Z,1006.45
2023-04-07T02:22:28.435Z,1006.43
2023-04-07T02:23:28.427Z,1006.45
2023-04-07T02:24:28.392Z,1006.43
2023-04-07T02:25:28.417Z,1006.44
2023-04-07T02:26:28.384Z,1006.43
2023-04-07T02:27:28.389Z,1006.41
2023-04-07T02:28:28.344Z,1006.42
2023-04-07T02:29:28.350Z,1006.44
2023-04-07T02:30:28.339Z,1006.42
2023-04-07T02:31:28.338Z,1006.43
2023-04-07T02:32:28.349Z,1006.46
2023-04-07T02:33:28.291Z,1006.46
2023-04-07T02:34:28.277Z,1006.45
2023-04-07T02:35:28.273Z,1006.43
2023-04-07T02:36:28.282Z,1006.46
2023-04-07T02:37:28.274Z,1006.46
2023-04-07T02:38:28.243Z,1006.46
2023-04-07T02:39:28.225Z,1006.45
2023-04-07T02:40:28.225Z,1006.45
2023-04-07T02:41:28.206Z,1006.46
2023-04-07T02:42:28.202Z,1006.42
2023-04-07T02:43:28.183Z,1006.46
2023-04-07T02:44:28.166Z,1006.47
2023-04-07T02:45:28.156Z,1006.47
2023-04-07T02:46:28.161Z,1006.47
2023-04-07T02:47:28.184Z,1006.52
2023-04-07T02:48:28.122Z,1006.52
2023-04-07T02:49:28.112Z,1006.49
2023-04-07T02:50:28.092Z,1006.49
2023-04-07T02:51:28.085Z,1006.45
2023-04-07T02:52:28.105Z,1006.49
2023-04-07T02:53:28.065Z,1006.52
2023-04-07T02:54:28.044Z,1006.55
2023-04-07T02:55:28.053Z,1006.46
2023-04-07T02:56:28.024Z,1006.47
2023-04-07T02:57:28.030Z,1006.48
2023-04-07T02:58:28.005Z,1006.54
2023-04-07T02:59:27.995Z,1006.50
2023-04-07T03:00:27.982Z,1006.54
2023-04-07T03:01:28.138Z,1006.54
2023-04-07T03:02:28.111Z,1006.54
2023-04-07T03:03:28.109Z,1006.55
2023-04-07T03:04:27.969Z,1006.55
2023-04-07T03:05:28.004Z,1006.59
2023-04-07T03:06:27.942Z,1006.60
2023-04-07T03:07:27.934Z,1006.55
2023-04-07T03:08:27.906Z,1006.58
2023-04-07T03:09:27.879Z,1006.59
2023-04-07T03:10:27.862Z,1006.58
2023-04-07T03:11:27.854Z,1006.57
2023-04-07T03:12:27.870Z,1006.65
2023-04-07T03:13:27.834Z,1006.62
2023-04-07T03:14:27.864Z,1006.59
2023-04-07T03:15:27.808Z,1006.61
2023-04-07T03:16:27.814Z,1006.64
2023-04-07T03:17:27.844Z,1006.61
2023-04-07T03:18:27.789Z,1006.61
2023-04-07T03:19:27.786Z,1006.58
2023-04-07T03:20:27.749Z,1006.59
2023-04-07T03:21:27.758Z,1006.59
2023-04-07T03:22:27.765Z,1006.60
2023-04-07T03:23:27.719Z,1006.61
2023-04-07T03:24:27.713Z,1006.59
2023-04-07T03:25:27.700Z,1006.59
2023-04-07T03:26:27.676Z,1006.58
2023-04-07T03:27:27.728Z,1006.58
2023-04-07T03:28:27.660Z,1006.59
2023-04-07T03:29:27.773Z,1006.58
2023-04-07T03:30:27.632Z,1006.61
2023-04-07T03:31:27.647Z,1006.61
2023-04-07T03:32:27.637Z,1006.61
2023-04-07T03:33:27.614Z,1006.63
2023-04-07T03:34:27.602Z,1006.58
2023-04-07T03:35:27.596Z,1006.61
2023-04-07T03:36:27.572Z,1006.57
2023-04-07T03:37:27.609Z,1006.61
2023-04-07T03:38:27.539Z,1006.59
2023-04-07T03:39:27.540Z,1006.56
2023-04-07T03:40:27.542Z,1006.61
2023-04-07T03:41:27.522Z,1006.64
2023-04-07T03:42:27.514Z,1006.62
2023-04-07T03:43:27.486Z,1006.59
2023-04-07T03:44:27.478Z,1006.61
2023-04-07T03:45:27.472Z,1006.56
2023-04-07T03:46:27.500Z,1006.59
2023-04-07T03:47:27.524Z,1006.57
2023-04-07T03:48:28.728Z,1006.62
2023-04-07T03:49:27.446Z,1006.59
2023-04-07T03:50:27.430Z,1006.60
2023-04-07T03:51:27.405Z,1006.60
2023-04-07T03:52:27.437Z,1006.59
2023-04-07T03:53:27.384Z,1006.64
2023-04-07T03:54:27.376Z,1006.62
2023-04-07T03:55:27.355Z,1006.62
2023-04-07T03:56:28.783Z,1006.63
2023-04-07T03:57:27.361Z,1006.64
2023-04-07T03:58:27.314Z,1006.63
2023-04-07T03:59:27.314Z,1006.64
2023-04-07T04:00:27.300Z,1006.59
2023-04-07T04:01:27.328Z,1006.62
2023-04-07T04:02:27.329Z,1006.63
2023-04-07T04:03:27.395Z,1006.63
2023-04-07T04:04:27.276Z,1006.61
2023-04-07T04:05:27.259Z,1006.60
2023-04-07T04:06:27.229Z,1006.68
2023-04-07T04:07:27.256Z,1006.65
2023-04-07T04:08:27.242Z,1006.64
2023-04-07T04:09:27.200Z,1006.70
2023-04-07T04:10:27.201Z,1006.68
2023-04-07T04:11:27.169Z,1006.69
2023-04-07T04:12:27.179Z,1006.70
2023-04-07T04:13:27.159Z,1006.76
2023-04-07T04:14:27.142Z,1006.69
2023-04-07T04:15:27.125Z,1006.71
2023-04-07T04:16:27.170Z,1006.73
2023-04-07T04:17:27.192Z,1006.73
2023-04-07T04:18:27.092Z,1006.76
2023-04-07T04:19:27.086Z,1006.73
2023-04-07T04:20:27.076Z,1006.74
2023-04-07T04:21:27.066Z,1006.76
2023-04-07T04:22:27.060Z,1006.74
2023-04-07T04:23:27.067Z,1006.72
2023-04-07T04:24:27.030Z,1006.70
2023-04-07T04:25:27.038Z,1006.72
2023-04-07T04:26:27.019Z,1006.72
2023-04-07T04:27:27.012Z,1006.75
2023-04-07T04:28:27.002Z,1006.70
2023-04-07T04:29:26.980Z,1006.73
2023-04-07T04:30:26.977Z,1006.77
2023-04-07T04:31:26.989Z,1006.77
2023-04-07T04:32:26.979Z,1006.80
2023-04-07T04:33:26.923Z,1006.79
2023-04-07T04:34:26.922Z,1006.80
2023-04-07T04:35:26.908Z,1006.78
2023-04-07T04:36:26.928Z,1006.76
2023-04-07T04:37:26.900Z,1006.77
2023-04-07T04:38:26.874Z,1006.81
2023-04-07T04:39:26.862Z,1006.78
2023-04-07T04:40:26.840Z,1006.82
2023-04-07T04:41:26.836Z,1006.82
2023-04-07T04:42:26.865Z,1006.81
2023-04-07T04:43:26.818Z,1006.79
2023-04-07T04:44:26.804Z,1006.80
2023-04-07T04:45:26.792Z,1006.86
2023-04-07T04:46:26.833Z,1006.84
2023-04-07T04:47:26.785Z,1006.82
2023-04-07T04:48:26.774Z,1006.86
2023-04-07T04:49:26.742Z,1006.86
2023-04-07T04:50:26.737Z,1006.89
2023-04-07T04:51:26.716Z,1006.85
2023-04-07T04:52:26.818Z,1006.89
2023-04-07T04:53:26.695Z,1006.89
2023-04-07T04:54:26.704Z,1006.90
2023-04-07T04:55:26.676Z,1006.94
2023-04-07T04:56:26.665Z,1006.95
2023-04-07T04:57:26.699Z,1006.94
2023-04-07T04:58:26.649Z,1006.95
2023-04-07T04:59:26.631Z,1006.94
2023-04-07T05:00:26.622Z,1006.94
2023-04-07T05:01:26.664Z,1006.95
2023-04-07T05:02:26.726Z,1006.94
2023-04-07T05:03:26.906Z,1006.95
2023-04-07T05:04:26.766Z,1006.98
2023-04-07T05:05:26.550Z,1006.96
2023-04-07T05:06:26.548Z,1006.98
2023-04-07T05:07:26.561Z,1007.01
2023-04-07T05:08:26.539Z,1006.98
2023-04-07T05:09:26.508Z,1007.01
2023-04-07T05:10:26.505Z,1006.99
2023-04-07T05:11:26.486Z,1006.99
2023-04-07T05:12:26.540Z,1007.00
2023-04-07T05:13:26.462Z,1007.02
2023-04-07T05:14:26.453Z,1007.04
2023-04-07T05:15:26.447Z,1007.05
2023-04-07T05:16:26.444Z,1007.09
2023-04-07T05:17:26.432Z,1007.06
2023-04-07T05:18:26.418Z,1007.08
2023-04-07T05:19:26.399Z,1007.09
2023-04-07T05:20:26.386Z,1007.06
2023-04-07T05:21:26.378Z,1007.12
2023-04-07T05:22:26.391Z,1007.11
2023-04-07T05:23:26.362Z,1007.11
2023-04-07T05:24:26.351Z,1007.06
2023-04-07T05:25:26.335Z,1007.10
2023-04-07T05:26:26.361Z,1007.17
2023-04-07T05:27:26.340Z,1007.17
2023-04-07T05:28:26.298Z,1007.21
2023-04-07T05:29:26.344Z,1007.16
2023-04-07T05:30:26.280Z,1007.23
2023-04-07T05:31:26.264Z,1007.22
2023-04-07T05:32:26.358Z,1007.24
2023-04-07T05:33:26.230Z,1007.24
2023-04-07T05:34:26.227Z,1007.22
2023-04-07T05:35:26.207Z,1007.25
2023-04-07T05:36:26.230Z,1007.25
2023-04-07T05:37:26.212Z,1007.28
2023-04-07T05:38:26.189Z,1007.26
2023-04-07T05:39:26.171Z,1007.23
2023-04-07T05:40:26.160Z,1007.25
2023-04-07T05:41:26.176Z,1007.25
2023-04-07T05:42:26.167Z,1007.24
2023-04-07T05:43:26.135Z,1007.27
2023-04-07T05:44:26.140Z,1007.26
2023-04-07T05:45:26.145Z,1007.29
2023-04-07T05:46:26.102Z,1007.29
2023-04-07T05:47:26.224Z,1007.30
2023-04-07T05:48:26.067Z,1007.23
2023-04-07T05:49:26.073Z,1007.28
2023-04-07T05:50:26.050Z,1007.29
2023-04-07T05:51:26.027Z,1007.32
2023-04-07T05:52:26.048Z,1007.31
2023-04-07T05:53:26.012Z,1007.28
2023-04-07T05:54:26.010Z,1007.30
2023-04-07T05:55:26.003Z,1007.33
2023-04-07T05:56:25.992Z,1007.30
2023-04-07T05:57:25.996Z,1007.33
2023-04-07T05:58:25.967Z,1007.33
2023-04-07T05:59:25.939Z,1007.35
2023-04-07T06:00:25.951Z,1007.35
2023-04-07T06:01:27.024Z,1007.38
2023-04-07T06:02:26.024Z,1007.39
2023-04-07T06:03:25.948Z,1007.38
2023-04-07T06:04:25.880Z,1007.39
2023-04-07T06:05:25.970Z,1007.42
2023-04-07T06:06:25.857Z,1007.42
2023-04-07T06:07:25.864Z,1007.44
2023-04-07T06:08:25.869Z,1007.43
2023-04-07T06:09:25.823Z,1007.41
2023-04-07T06:10:25.814Z,1007.42
2023-04-07T06:11:25.798Z,1007.48
2023-04-07T06:12:25.819Z,1007.44
2023-04-07T06:13:25.776Z,1007.47
2023-04-07T06:14:25.784Z,1007.48
2023-04-07T06:15:25.757Z,1007.49
2023-04-07T06:16:25.827Z,1007.53
2023-04-07T06:17:25.793Z,1007.55
2023-04-07T06:18:25.722Z,1007.52
2023-04-07T06:19:25.732Z,1007.55
2023-04-07T06:20:25.698Z,1007.57
2023-04-07T06:21:25.691Z,1007.58
2023-04-07T06:22:25.698Z,1007.60
2023-04-07T06:23:25.669Z,1007.62
2023-04-07T06:24:25.662Z,1007.64
2023-04-07T06:25:25.638Z,1007.61
2023-04-07T06:26:25.657Z,1007.60
2023-04-07T06:27:25.648Z,1007.65
2023-04-07T06:28:25.621Z,1007.62
2023-04-07T06:29:25.594Z,1007.63
2023-04-07T06:30:25.612Z,1007.66
2023-04-07T06:31:25.584Z,1007.65
2023-04-07T06:32:25.636Z,1007.68
2023-04-07T06:33:25.634Z,1007.66
2023-04-07T06:34:25.540Z,1007.66
2023-04-07T06:35:25.538Z,1007.67
2023-04-07T06:36:25.533Z,1007.70
2023-04-07T06:37:25.520Z,1007.68
2023-04-07T06:38:25.504Z,1007.70
2023-04-07T06:39:25.484Z,1007.68
2023-04-07T06:40:25.478Z,1007.69
2023-04-07T06:41:25.609Z,1007.73
2023-04-07T06:42:25.484Z,1007.73
2023-04-07T06:43:25.435Z,1007.71
2023-04-07T06:44:25.423Z,1007.72
2023-04-07T06:45:25.424Z,1007.74
2023-04-07T06:46:25.451Z,1007.72
2023-04-07T06:47:25.431Z,1007.76
2023-04-07T06:48:25.452Z,1007.72
2023-04-07T06:49:25.389Z,1007.75
2023-04-07T06:50:25.357Z,1007.73
2023-04-07T06:51:25.363Z,1007.78
2023-04-07T06:52:25.358Z,1007.77
2023-04-07T06:53:25.317Z,1007.73
2023-04-07T06:54:25.326Z,1007.77
2023-04-07T06:55:25.294Z,1007.77
2023-04-07T06:56:25.293Z,1007.79
2023-04-07T06:57:25.295Z,1007.77
2023-04-07T06:58:25.285Z,1007.83
2023-04-07T06:59:25.265Z,1007.84
2023-04-07T07:00:25.258Z,1007.81
2023-04-07T07:01:25.368Z,1007.84
2023-04-07T07:02:25.368Z,1007.83
2023-04-07T07:03:25.455Z,1007.82
2023-04-07T07:04:25.333Z,1007.88
2023-04-07T07:05:25.200Z,1007.89
2023-04-07T07:06:25.204Z,1007.83
2023-04-07T07:07:25.182Z,1007.83
2023-04-07T07:08:25.153Z,1007.80
2023-04-07T07:09:25.141Z,1007.84
2023-04-07T07:10:25.131Z,1007.81
2023-04-07T07:11:25.112Z,1007.83
2023-04-07T07:12:25.139Z,1007.83
2023-04-07T07:13:25.088Z,1007.84
2023-04-07T07:14:25.093Z,1007.85
2023-04-07T07:15:25.103Z,1007.83
2023-04-07T07:16:25.068Z,1007.90
2023-04-07T07:17:25.104Z,1007.90
2023-04-07T07:18:25.070Z,1007.93
2023-04-07T07:19:25.230Z,1007.92
2023-04-07T07:20:25.017Z,1007.93
2023-04-07T07:21:25.006Z,1007.92
2023-04-07T07:22:25.019Z,1007.94
2023-04-07T07:23:25.030Z,1007.97
2023-04-07T07:24:24.971Z,1007.94
2023-04-07T07:25:24.962Z,1007.94
2023-04-07T07:26:24.983Z,1007.95
2023-04-07T07:27:24.960Z,1007.95
2023-04-07T07:28:24.923Z,1008.01
2023-04-07T07:29:24.918Z,1007.99
2023-04-07T07:30:24.899Z,1007.99
2023-04-07T07:31:24.911Z,1008.01
2023-04-07T07:32:24.945Z,1008.03
2023-04-07T07:33:24.892Z,1008.04
2023-04-07T07:34:24.863Z,1008.05
2023-04-07T07:35:24.851Z,1008.08
2023-04-07T07:36:24.848Z,1008.10
2023-04-07T07:37:24.915Z,1008.09
2023-04-07T07:38:24.832Z,1008.06
2023-04-07T07:39:24.830Z,1008.10
2023-04-07T07:40:24.781Z,1008.10
2023-04-07T07:41:24.830Z,1008.11
2023-04-07T07:42:24.846Z,1008.11
2023-04-07T07:43:24.773Z,1008.12
2023-04-07T07:44:24.744Z,1008.11
2023-04-07T07:45:24.740Z,1008.13
2023-04-07T07:46:24.742Z,1008.18
2023-04-07T07:47:24.753Z,1008.16
2023-04-07T07:48:24.705Z,1008.19
2023-04-07T07:49:24.697Z,1008.19
2023-04-07T07:50:24.755Z,1008.19
2023-04-07T07:51:24.655Z,1008.20
2023-04-07T07:52:24.678Z,1008.20
2023-04-07T07:53:25.020Z,1008.18
2023-04-07T07:54:24.625Z,1008.25
2023-04-07T07:55:24.613Z,1008.25
2023-04-07T07:56:24.607Z,1008.24
2023-04-07T07:57:24.615Z,1008.27
2023-04-07T07:58:24.593Z,1008.27
2023-04-07T07:59:24.600Z,1008.34
2023-04-07T08:00:24.581Z,1008.30
2023-04-07T08:01:24.555Z,1008.29
2023-04-07T08:02:24.589Z,1008.31
2023-04-07T08:03:24.612Z,1008.38
2023-04-07T08:04:24.593Z,1008.39
2023-04-07T08:05:24.616Z,1008.37
2023-04-07T08:06:24.487Z,1008.40
2023-04-07T08:07:24.502Z,1008.38
2023-04-07T08:08:24.472Z,1008.41
2023-04-07T08:09:24.464Z,1008.38
2023-04-07T08:10:24.484Z,1008.43
2023-04-07T08:11:24.446Z,1008.44
2023-04-07T08:12:24.447Z,1008.50
2023-04-07T08:13:24.424Z,1008.49
2023-04-07T08:14:24.402Z,1008.51
2023-04-07T08:15:24.386Z,1008.55
2023-04-07T08:16:24.460Z,1008.55
2023-04-07T08:17:24.425Z,1008.55
2023-04-07T08:18:24.361Z,1008.57
2023-04-07T08:19:24.338Z,1008.60
2023-04-07T08:20:24.391Z,1008.59
2023-04-07T08:21:24.315Z,1008.64
2023-04-07T08:22:24.330Z,1008.62
2023-04-07T08:23:24.311Z,1008.66
2023-04-07T08:24:24.296Z,1008.67
2023-04-07T08:25:24.301Z,1008.65
2023-04-07T08:26:24.270Z,1008.65
2023-04-07T08:27:24.265Z,1008.67
2023-04-07T08:28:24.253Z,1008.69
2023-04-07T08:29:24.228Z,1008.68
2023-04-07T08:30:24.261Z,1008.76
2023-04-07T08:31:24.246Z,1008.72
2023-04-07T08:32:24.244Z,1008.72
2023-04-07T08:33:24.174Z,1008.71
2023-04-07T08:34:24.169Z,1008.67
2023-04-07T08:35:24.160Z,1008.73
2023-04-07T08:36:24.179Z,1008.73
2023-04-07T08:37:24.171Z,1008.74
2023-04-07T08:38:24.148Z,1008.76
2023-04-07T08:39:24.107Z,1008.77
2023-04-07T08:40:24.169Z,1008.75
2023-04-07T08:41:24.103Z,1008.73
2023-04-07T08:42:24.107Z,1008.78
2023-04-07T08:43:24.064Z,1008.77
2023-04-07T08:44:24.061Z,1008.80
2023-04-07T08:45:24.074Z,1008.77
2023-04-07T08:46:24.040Z,1008.77
2023-04-07T08:47:24.066Z,1008.75
2023-04-07T08:48:24.020Z,1008.79
2023-04-07T08:49:23.999Z,1008.81
2023-04-07T08:50:23.982Z,1008.85
2023-04-07T08:51:23.989Z,1008.79
2023-04-07T08:52:23.983Z,1008.84
2023-04-07T08:53:23.954Z,1008.86
2023-04-07T08:54:23.968Z,1008.82
2023-04-07T08:55:23.980Z,1008.78
2023-04-07T08:56:23.914Z,1008.82
2023-04-07T08:57:23.924Z,1008.84
2023-04-07T08:58:23.902Z,1008.84
2023-04-07T08:59:23.876Z,1008.82
2023-04-07T09:00:23.870Z,1008.83
2023-04-07T09:01:23.877Z,1008.83
2023-04-07T09:02:23.950Z,1008.80
2023-04-07T09:03:23.915Z,1008.87
2023-04-07T09:04:23.854Z,1008.86
2023-04-07T09:05:23.835Z,1008.82
2023-04-07T09:06:23.828Z,1008.88
2023-04-07T09:07:23.809Z,1008.90
2023-04-07T09:08:23.774Z,1008.89
2023-04-07T09:09:23.778Z,1008.90
2023-04-07T09:10:23.752Z,1008.84
2023-04-07T09:11:23.740Z,1008.84
2023-04-07T09:12:23.744Z,1008.85
2023-04-07T09:13:23.725Z,1008.83
2023-04-07T09:14:23.704Z,1008.86
2023-04-07T09:15:23.703Z,1008.89
2023-04-07T09:16:23.693Z,1008.92
2023-04-07T09:17:23.736Z,1008.93
2023-04-07T09:18:23.669Z,1008.91
2023-04-07T09:19:23.660Z,1008.96
2023-04-07T09:20:23.649Z,1008.96
2023-04-07T09:21:23.634Z,1009.00
2023-04-07T09:22:23.650Z,1009.01
2023-04-07T09:23:23.610Z,1008.99
2023-04-07T09:24:23.620Z,1009.01
2023-04-07T09:25:23.639Z,1009.01
2023-04-07T09:26:23.575Z,1009.03
2023-04-07T09:27:23.583Z,1009.04
2023-04-07T09:28:23.546Z,1009.01
2023-04-07T09:29:23.554Z,1009.06
2023-04-07T09:30:23.547Z,1009.09
2023-04-07T09:31:23.537Z,1009.05
2023-04-07T09:32:23.555Z,1009.07
2023-04-07T09:33:23.498Z,1009.04
2023-04-07T09:34:23.481Z,1009.06
2023-04-07T09:35:23.476Z,1009.02
2023-04-07T09:36:23.463Z,1009.07
2023-04-07T09:37:23.484Z,1009.05
2023-04-07T09:38:23.443Z,1009.11
2023-04-07T09:39:23.447Z,1009.12
2023-04-07T09:40:23.428Z,1009.07
2023-04-07T09:41:23.456Z,1009.14
2023-04-07T09:42:23.415Z,1009.11
2023-04-07T09:43:23.391Z,1009.13
2023-04-07T09:44:23.374Z,1009.13
2023-04-07T09:45:33.169Z,1009.15
2023-04-07T09:46:24.983Z,1009.14
2023-04-07T09:47:23.383Z,1009.13
2023-04-07T09:48:23.348Z,1009.13
2023-04-07T09:49:23.321Z,1009.16
2023-04-07T09:50:23.313Z,1009.17
2023-04-07T09:51:23.302Z,1009.16
2023-04-07T09:52:23.298Z,1009.21
2023-04-07T09:53:23.371Z,1009.18
2023-04-07T09:54:23.262Z,1009.17
2023-04-07T09:55:23.278Z,1009.19
2023-04-07T09:56:23.263Z,1009.19
2023-04-07T09:57:23.254Z,1009.21
2023-04-07T09:58:23.243Z,1009.21
2023-04-07T09:59:23.259Z,1009.22
2023-04-07T10:00:23.223Z,1009.23
2023-04-07T10:01:23.323Z,1009.26
2023-04-07T10:02:23.360Z,1009.23
2023-04-07T10:03:23.294Z,1009.22
2023-04-07T10:04:23.410Z,1009.25
2023-04-07T10:05:23.243Z,1009.22
2023-04-07T10:06:23.138Z,1009.25
2023-04-07T10:07:23.136Z,1009.23
2023-04-07T10:08:23.132Z,1009.26
2023-04-07T10:09:23.123Z,1009.24
2023-04-07T10:10:23.096Z,1009.23
2023-04-07T10:11:23.076Z,1009.25
2023-04-07T10:12:23.064Z,1009.28
2023-04-07T10:13:23.054Z,1009.23
2023-04-07T10:14:23.049Z,1009.27
2023-04-07T10:15:23.069Z,1009.27
2023-04-07T10:16:23.038Z,1009.29
2023-04-07T10:17:23.038Z,1009.31
2023-04-07T10:18:23.037Z,1009.33
2023-04-07T10:19:22.992Z,1009.33
2023-04-07T10:20:22.973Z,1009.30
2023-04-07T10:21:22.990Z,1009.34
2023-04-07T10:22:22.978Z,1009.33
2023-04-07T10:23:22.949Z,1009.38
2023-04-07T10:24:22.936Z,1009.38
2023-04-07T10:25:22.948Z,1009.40
2023-04-07T10:26:22.944Z,1009.40
2023-04-07T10:27:22.905Z,1009.41
2023-04-07T10:28:22.882Z,1009.43
2023-04-07T10:29:22.895Z,1009.40
2023-04-07T10:30:22.904Z,1009.50
2023-04-07T10:31:22.958Z,1009.43
2023-04-07T10:32:22.886Z,1009.45
2023-04-07T10:33:22.885Z,1009.48
2023-04-07T10:34:22.821Z,1009.49
2023-04-07T10:35:22.878Z,1009.47
2023-04-07T10:36:22.802Z,1009.51
2023-04-07T10:37:22.812Z,1009.51
2023-04-07T10:38:22.841Z,1009.52
2023-04-07T10:39:22.780Z,1009.51
2023-04-07T10:40:22.766Z,1009.53
2023-04-07T10:41:22.918Z,1009.57
2023-04-07T10:42:22.784Z,1009.58
2023-04-07T10:43:22.729Z,1009.56
2023-04-07T10:44:22.731Z,1009.56
2023-04-07T10:45:22.704Z,1009.55
2023-04-07T10:46:22.760Z,1009.58
2023-04-07T10:47:22.691Z,1009.57
2023-04-07T10:48:22.685Z,1009.59
2023-04-07T10:49:22.662Z,1009.60
2023-04-07T10:50:22.685Z,1009.63
2023-04-07T10:51:22.638Z,1009.60
2023-04-07T10:52:22.629Z,1009.60
2023-04-07T10:53:22.669Z,1009.66
2023-04-07T10:54:22.662Z,1009.70
2023-04-07T10:55:22.598Z,1009.70
2023-04-07T10:56:22.573Z,1009.70
2023-04-07T10:57:22.605Z,1009.73
2023-04-07T10:58:22.654Z,1009.72
2023-04-07T10:59:22.564Z,1009.66
2023-04-07T11:00:22.530Z,1009.72
2023-04-07T11:01:22.562Z,1009.69
2023-04-07T11:02:22.729Z,1009.70
2023-04-07T11:03:22.722Z,1009.69
2023-04-07T11:04:22.555Z,1009.70
2023-04-07T11:05:22.488Z,1009.74
2023-04-07T11:06:22.493Z,1009.69
2023-04-07T11:07:22.477Z,1009.69
2023-04-07T11:08:22.472Z,1009.75
2023-04-07T11:09:22.427Z,1009.74
2023-04-07T11:10:22.429Z,1009.74
2023-04-07T11:11:22.412Z,1009.71
2023-04-07T11:12:22.415Z,1009.72
2023-04-07T11:13:22.386Z,1009.75
2023-04-07T11:14:22.369Z,1009.74
2023-04-07T11:15:22.416Z,1009.75
2023-04-07T11:16:22.380Z,1009.77
2023-04-07T11:17:22.389Z,1009.75
2023-04-07T11:18:22.325Z,1009.76
2023-04-07T11:19:22.359Z,1009.77
2023-04-07T11:20:22.301Z,1009.75
2023-04-07T11:21:22.296Z,1009.76
2023-04-07T11:22:29.854Z,1009.77
2023-04-07T11:23:22.279Z,1009.83
2023-04-07T11:24:22.260Z,1009.81
2023-04-07T11:25:22.255Z,1009.82
2023-04-07T11:26:22.235Z,1009.82
2023-04-07T11:27:22.249Z,1009.85
2023-04-07T11:28:22.220Z,1009.84
2023-04-07T11:29:22.207Z,1009.85
2023-04-07T11:30:22.197Z,1009.85
2023-04-07T11:31:22.224Z,1009.83
2023-04-07T11:32:24.974Z,1009.83
2023-04-07T11:33:22.194Z,1009.81
2023-04-07T11:34:22.159Z,1009.86
2023-04-07T11:35:22.132Z,1009.83
2023-04-07T11:36:22.120Z,1009.84
2023-04-07T11:37:22.139Z,1009.86
2023-04-07T11:38:22.128Z,1009.84
2023-04-07T11:39:22.194Z,1009.85
2023-04-07T11:40:22.073Z,1009.87
2023-04-07T11:41:22.072Z,1009.88
2023-04-07T11:42:22.061Z,1009.89
2023-04-07T11:43:22.056Z,1009.93
2023-04-07T11:44:22.025Z,1009.92
2023-04-07T11:45:22.021Z,1009.90
2023-04-07T11:46:22.089Z,1009.93
2023-04-07T11:47:22.006Z,1009.96
2023-04-07T11:48:21.986Z,1009.93
2023-04-07T11:49:21.970Z,1009.92
2023-04-07T11:50:21.953Z,1009.97
2023-04-07T11:51:21.948Z,1009.94
2023-04-07T11:52:21.954Z,1009.93
2023-04-07T11:53:21.928Z,1009.96
2023-04-07T11:54:21.910Z,1009.96
2023-04-07T11:55:22.529Z,1009.99
2023-04-07T11:56:21.915Z,1009.97
2023-04-07T11:57:21.891Z,1009.96
2023-04-07T11:58:21.861Z,1009.97
2023-04-07T11:59:21.852Z,1009.98
2023-04-07T12:00:21.839Z,1010.00
2023-04-07T12:01:21.839Z,1010.01
2023-04-07T12:02:21.924Z,1009.99
2023-04-07T12:03:22.029Z,1010.03
2023-04-07T12:04:21.838Z,1009.97
2023-04-07T12:05:21.788Z,1010.04